createdAt,value
2018-11-01T00:00:26.445Z,10.90
2018-11-01T00:01:26.427Z,10.94
2018-11-01T00:02:26.421Z,10.86
2018-11-01T00:03:26.384Z,10.89
2018-11-01T00:04:26.363Z,10.89
2018-11-01T00:05:26.343Z,10.92
2018-11-01T00:06:26.351Z,10.90
2018-11-01T00:07:26.302Z,10.90
2018-11-01T00:08:26.278Z,10.94
2018-11-01T00:09:26.263Z,10.89
2018-11-01T00:10:26.236Z,10.87
2018-11-01T00:11:26.227Z,10.86
2018-11-01T00:12:26.195Z,10.86
2018-11-01T00:13:26.188Z,10.87
2018-11-01T00:14:26.157Z,10.83
2018-11-01T00:15:26.145Z,10.89
2018-11-01T00:16:26.114Z,10.83
2018-11-01T00:17:26.091Z,10.92
2018-11-01T00:18:26.072Z,10.92
2018-11-01T00:19:26.052Z,10.92
2018-11-01T00:20:26.039Z,10.95
2018-11-01T00:21:26.016Z,10.95
2018-11-01T00:22:25.988Z,10.89
2018-11-01T00:23:25.968Z,10.94
2018-11-01T00:24:25.944Z,11.05
2018-11-01T00:25:25.923Z,11.02
2018-11-01T00:26:25.904Z,11.10
2018-11-01T00:27:25.888Z,11.05
2018-11-01T00:28:26.016Z,11.05
2018-11-01T00:29:25.838Z,11.01
2018-11-01T00:30:25.820Z,11.04
2018-11-01T00:31:25.809Z,11.05
2018-11-01T00:32:25.785Z,11.10
2018-11-01T00:33:25.757Z,11.05
2018-11-01T00:34:25.733Z,10.98
2018-11-01T00:35:25.723Z,11.07
2018-11-01T00:36:25.700Z,11.02
2018-11-01T00:37:25.681Z,11.02
2018-11-01T00:38:25.651Z,11.04
2018-11-01T00:39:25.634Z,11.02
2018-11-01T00:40:25.607Z,11.00
2018-11-01T00:41:25.591Z,10.97
2018-11-01T00:42:25.573Z,10.94
2018-11-01T00:43:25.543Z,10.98
2018-11-01T00:44:25.523Z,11.02
2018-11-01T00:45:25.502Z,10.98
2018-11-01T00:46:25.489Z,10.92
2018-11-01T00:47:25.471Z,10.87
2018-11-01T00:48:25.455Z,10.95
2018-11-01T00:49:25.433Z,10.98
2018-11-01T00:50:25.402Z,11.04
2018-11-01T00:51:25.376Z,11.04
2018-11-01T00:52:25.354Z,11.07
2018-11-01T00:53:25.335Z,11.07
2018-11-01T00:54:25.313Z,11.10
2018-11-01T00:55:25.290Z,11.08
2018-11-01T00:56:25.267Z,11.05
2018-11-01T00:57:25.247Z,11.12
2018-11-01T00:58:25.226Z,11.07
2018-11-01T00:59:25.215Z,11.02
2018-11-01T01:00:25.183Z,11.02
2018-11-01T01:01:25.160Z,11.02
2018-11-01T01:02:25.167Z,11.07
2018-11-01T01:03:25.132Z,11.13
2018-11-01T01:04:25.099Z,11.12
2018-11-01T01:05:25.083Z,11.05
2018-11-01T01:06:25.068Z,11.08
2018-11-01T01:07:25.034Z,11.05
2018-11-01T01:08:25.013Z,11.07
2018-11-01T01:09:24.996Z,11.08
2018-11-01T01:10:24.987Z,11.04
2018-11-01T01:11:24.952Z,11.15
2018-11-01T01:12:24.930Z,11.12
2018-11-01T01:13:24.908Z,11.12
2018-11-01T01:14:24.886Z,11.02
2018-11-01T01:15:24.868Z,11.01
2018-11-01T01:16:24.845Z,10.98
2018-11-01T01:17:24.992Z,11.01
2018-11-01T01:18:24.807Z,11.01
2018-11-01T01:19:24.780Z,11.05
2018-11-01T01:20:24.763Z,10.95
2018-11-01T01:21:24.738Z,10.89
2018-11-01T01:22:24.716Z,10.86
2018-11-01T01:23:24.696Z,10.97
2018-11-01T01:24:24.676Z,10.90
2018-11-01T01:25:24.649Z,10.90
2018-11-01T01:26:24.631Z,10.92
2018-11-01T01:27:24.611Z,10.94
2018-11-01T01:28:24.694Z,10.90
2018-11-01T01:29:24.563Z,10.90
2018-11-01T01:30:24.547Z,10.84
2018-11-01T01:31:24.529Z,10.92
2018-11-01T01:32:24.505Z,10.98
2018-11-01T01:33:24.477Z,10.98
2018-11-01T01:34:24.479Z,10.92
2018-11-01T01:35:24.434Z,11.01
2018-11-01T01:36:24.423Z,11.01
2018-11-01T01:37:24.392Z,11.10
2018-11-01T01:38:24.370Z,11.02
2018-11-01T01:39:24.351Z,11.02
2018-11-01T01:40:24.336Z,11.12
2018-11-01T01:41:24.305Z,11.05
2018-11-01T01:42:24.331Z,11.08
2018-11-01T01:43:24.266Z,11.05
2018-11-01T01:44:24.239Z,11.13
2018-11-01T01:45:24.225Z,11.08
2018-11-01T01:46:24.196Z,11.08
2018-11-01T01:47:24.173Z,11.10
2018-11-01T01:48:24.154Z,11.07
2018-11-01T01:49:24.129Z,11.12
2018-11-01T01:50:24.136Z,11.07
2018-11-01T01:51:24.088Z,11.12
2018-11-01T01:52:24.071Z,11.15
2018-11-01T01:53:24.064Z,11.13
2018-11-01T01:54:24.024Z,11.12
2018-11-01T01:55:24.002Z,11.12
2018-11-01T01:56:23.977Z,11.15
2018-11-01T01:57:23.960Z,11.12
2018-11-01T01:58:23.935Z,11.19
2018-11-01T01:59:23.915Z,11.12
2018-11-01T02:00:23.892Z,11.23
2018-11-01T02:01:23.870Z,11.18
2018-11-01T02:02:23.847Z,11.20
2018-11-01T02:03:23.826Z,11.25
2018-11-01T02:04:23.805Z,11.20
2018-11-01T02:05:23.788Z,11.31
2018-11-01T02:06:23.762Z,11.30
2018-11-01T02:07:23.740Z,11.27
2018-11-01T02:08:23.718Z,11.31
2018-11-01T02:09:23.699Z,11.25
2018-11-01T02:10:23.679Z,11.25
2018-11-01T02:11:23.655Z,11.27
2018-11-01T02:12:23.637Z,11.27
2018-11-01T02:13:23.612Z,11.26
2018-11-01T02:14:23.588Z,11.20
2018-11-01T02:15:23.568Z,11.27
2018-11-01T02:16:23.556Z,11.27
2018-11-01T02:17:23.527Z,11.27
2018-11-01T02:18:23.502Z,11.26
2018-11-01T02:19:23.483Z,11.27
2018-11-01T02:20:23.470Z,11.26
2018-11-01T02:21:23.442Z,11.31
2018-11-01T02:22:23.417Z,11.26
2018-11-01T02:23:23.399Z,11.26
2018-11-01T02:24:23.387Z,11.25
2018-11-01T02:25:23.357Z,11.27
2018-11-01T02:26:23.332Z,11.27
2018-11-01T02:27:23.313Z,11.27
2018-11-01T02:28:23.288Z,11.22
2018-11-01T02:29:23.267Z,11.30
2018-11-01T02:30:23.249Z,11.34
2018-11-01T02:31:23.298Z,11.37
2018-11-01T02:32:23.202Z,11.34
2018-11-01T02:33:23.179Z,11.37
2018-11-01T02:34:23.157Z,11.34
2018-11-01T02:35:23.143Z,11.35
2018-11-01T02:36:23.116Z,11.43
2018-11-01T02:37:23.094Z,11.40
2018-11-01T02:38:23.126Z,11.31
2018-11-01T02:39:23.068Z,11.35
2018-11-01T02:40:23.031Z,11.44
2018-11-01T02:41:23.008Z,11.38
2018-11-01T02:42:22.988Z,11.48
2018-11-01T02:43:22.965Z,11.41
2018-11-01T02:44:22.946Z,11.44
2018-11-01T02:45:22.921Z,11.43
2018-11-01T02:46:22.900Z,11.44
2018-11-01T02:47:22.883Z,11.48
2018-11-01T02:48:22.857Z,11.41
2018-11-01T02:49:22.840Z,11.43
2018-11-01T02:50:22.816Z,11.43
2018-11-01T02:51:22.797Z,11.38
2018-11-01T02:52:22.773Z,11.43
2018-11-01T02:53:22.751Z,11.43
2018-11-01T02:54:22.730Z,11.43
2018-11-01T02:55:22.707Z,11.40
2018-11-01T02:56:22.708Z,11.38
2018-11-01T02:57:22.665Z,11.37
2018-11-01T02:58:22.643Z,11.34
2018-11-01T02:59:22.621Z,11.34
2018-11-01T03:00:22.604Z,11.30
2018-11-01T03:01:22.579Z,11.31
2018-11-01T03:02:22.563Z,11.26
2018-11-01T03:03:22.535Z,11.25
2018-11-01T03:04:22.521Z,11.22
2018-11-01T03:05:22.498Z,11.19
2018-11-01T03:06:22.476Z,11.18
2018-11-01T03:07:22.465Z,11.22
2018-11-01T03:08:22.428Z,11.12
2018-11-01T03:09:22.408Z,11.08
2018-11-01T03:10:22.387Z,11.08
2018-11-01T03:11:22.369Z,11.07
2018-11-01T03:12:22.352Z,11.08
2018-11-01T03:13:22.331Z,11.05
2018-11-01T03:14:22.299Z,10.97
2018-11-01T03:15:22.350Z,11.00
2018-11-01T03:16:22.262Z,10.92
2018-11-01T03:17:22.234Z,10.94
2018-11-01T03:18:22.214Z,10.92
2018-11-01T03:19:22.192Z,10.90
2018-11-01T03:20:22.170Z,10.83
2018-11-01T03:21:22.262Z,10.83
2018-11-01T03:22:22.128Z,10.87
2018-11-01T03:23:22.106Z,10.79
2018-11-01T03:24:22.088Z,10.77
2018-11-01T03:25:22.062Z,10.72
2018-11-01T03:26:22.125Z,10.72
2018-11-01T03:27:22.021Z,10.68
2018-11-01T03:28:21.999Z,10.75
2018-11-01T03:29:21.974Z,10.77
2018-11-01T03:30:21.958Z,10.76
2018-11-01T03:31:21.931Z,10.69
2018-11-01T03:32:21.910Z,10.68
2018-11-01T03:33:21.889Z,10.68
2018-11-01T03:34:21.868Z,10.76
2018-11-01T03:35:21.846Z,10.72
2018-11-01T03:36:21.830Z,10.68
2018-11-01T03:37:21.799Z,10.58
2018-11-01T03:38:21.955Z,10.64
2018-11-01T03:39:21.759Z,10.59
2018-11-01T03:40:21.812Z,10.58
2018-11-01T03:41:21.713Z,10.55
2018-11-01T03:42:21.695Z,10.46
2018-11-01T03:43:21.770Z,10.45
2018-11-01T03:44:21.656Z,10.43
2018-11-01T03:45:21.630Z,10.46
2018-11-01T03:46:21.606Z,10.41
2018-11-01T03:47:21.583Z,10.33
2018-11-01T03:48:21.568Z,10.27
2018-11-01T03:49:21.539Z,10.38
2018-11-01T03:50:21.518Z,10.38
2018-11-01T03:51:21.493Z,10.39
2018-11-01T03:52:21.509Z,10.36
2018-11-01T03:53:21.528Z,10.38
2018-11-01T03:54:21.448Z,10.46
2018-11-01T03:55:21.410Z,10.48
2018-11-01T03:56:21.386Z,10.39
2018-11-01T03:57:21.372Z,10.33
2018-11-01T03:58:21.344Z,10.43
2018-11-01T03:59:21.335Z,10.38
2018-11-01T04:00:21.298Z,10.39
2018-11-01T04:01:21.287Z,10.34
2018-11-01T04:02:21.267Z,10.36
2018-11-01T04:03:21.233Z,10.31
2018-11-01T04:04:21.213Z,10.27
2018-11-01T04:05:21.192Z,10.23
2018-11-01T04:06:21.170Z,10.25
2018-11-01T04:07:21.154Z,10.28
2018-11-01T04:08:21.125Z,10.25
2018-11-01T04:09:21.104Z,10.25
2018-11-01T04:10:21.209Z,10.09
2018-11-01T04:11:21.062Z,10.17
2018-11-01T04:12:21.044Z,10.07
2018-11-01T04:13:21.065Z,10.06
2018-11-01T04:14:20.994Z,10.13
2018-11-01T04:15:21.103Z,10.06
2018-11-01T04:16:20.952Z,10.07
2018-11-01T04:17:20.929Z,10.05
2018-11-01T04:18:20.904Z,9.97
2018-11-01T04:19:20.884Z,10.09
2018-11-01T04:20:20.863Z,10.09
2018-11-01T04:21:20.840Z,10.09
2018-11-01T04:22:20.818Z,10.24
2018-11-01T04:23:20.914Z,10.21
2018-11-01T04:24:20.803Z,10.17
2018-11-01T04:25:20.751Z,10.21
2018-11-01T04:26:20.730Z,10.20
2018-11-01T04:27:20.708Z,10.07
2018-11-01T04:28:20.684Z,10.09
2018-11-01T04:29:20.667Z,10.00
2018-11-01T04:30:20.641Z,9.91
2018-11-01T04:31:20.620Z,10.05
2018-11-01T04:32:20.599Z,10.05
2018-11-01T04:33:20.723Z,9.99
2018-11-01T04:34:20.552Z,10.06
2018-11-01T04:35:20.620Z,10.10
2018-11-01T04:36:20.587Z,10.02
2018-11-01T04:37:20.491Z,10.09
2018-11-01T04:38:20.465Z,10.12
2018-11-01T04:39:20.453Z,10.03
2018-11-01T04:40:20.455Z,10.10
2018-11-01T04:41:20.403Z,10.00
2018-11-01T04:42:20.377Z,10.09
2018-11-01T04:43:20.358Z,10.10
2018-11-01T04:44:20.394Z,9.91
2018-11-01T04:45:20.312Z,9.87
2018-11-01T04:46:20.320Z,9.87
2018-11-01T04:47:20.283Z,9.95
2018-11-01T04:48:20.244Z,10.02
2018-11-01T04:49:20.225Z,9.90
2018-11-01T04:50:20.200Z,9.99
2018-11-01T04:51:20.180Z,9.99
2018-11-01T04:52:20.167Z,10.07
2018-11-01T04:53:20.133Z,10.03
2018-11-01T04:54:20.108Z,10.03
2018-11-01T04:55:20.091Z,9.92
2018-11-01T04:56:20.067Z,9.97
2018-11-01T04:57:20.047Z,10.00
2018-11-01T04:58:20.027Z,9.95
2018-11-01T04:59:20.002Z,9.94
2018-11-01T05:00:19.978Z,10.00
2018-11-01T05:01:19.958Z,9.92
2018-11-01T05:02:19.936Z,9.92
2018-11-01T05:03:19.914Z,9.92
2018-11-01T05:04:19.888Z,9.90
2018-11-01T05:05:19.993Z,9.91
2018-11-01T05:06:19.856Z,10.02
2018-11-01T05:07:19.826Z,9.92
2018-11-01T05:08:19.804Z,9.91
2018-11-01T05:09:19.780Z,9.95
2018-11-01T05:10:19.759Z,9.91
2018-11-01T05:11:19.738Z,9.92
2018-11-01T05:12:19.720Z,9.90
2018-11-01T05:13:19.693Z,9.80
2018-11-01T05:14:19.668Z,9.87
2018-11-01T05:15:19.719Z,9.82
2018-11-01T05:16:19.627Z,9.87
2018-11-01T05:17:19.608Z,9.82
2018-11-01T05:18:19.583Z,9.84
2018-11-01T05:19:19.559Z,9.81
2018-11-01T05:20:19.560Z,9.84
2018-11-01T05:21:19.529Z,9.81
2018-11-01T05:22:19.493Z,9.84
2018-11-01T05:23:19.474Z,9.80
2018-11-01T05:24:19.452Z,9.85
2018-11-01T05:25:19.441Z,9.73
2018-11-01T05:26:19.409Z,9.82
2018-11-01T05:27:19.381Z,9.72
2018-11-01T05:28:19.362Z,9.73
2018-11-01T05:29:19.384Z,9.72
2018-11-01T05:30:19.318Z,9.64
2018-11-01T05:31:19.293Z,9.59
2018-11-01T05:32:19.272Z,9.58
2018-11-01T05:33:19.253Z,9.64
2018-11-01T05:34:19.249Z,9.63
2018-11-01T05:35:19.207Z,9.62
2018-11-01T05:36:19.182Z,9.54
2018-11-01T05:37:19.163Z,9.51
2018-11-01T05:38:19.240Z,9.47
2018-11-01T05:39:19.118Z,9.45
2018-11-01T05:40:19.094Z,9.47
2018-11-01T05:41:19.073Z,9.51
2018-11-01T05:42:19.051Z,9.44
2018-11-01T05:43:19.030Z,9.31
2018-11-01T05:44:19.006Z,9.29
2018-11-01T05:45:18.987Z,9.31
2018-11-01T05:46:18.964Z,9.31
2018-11-01T05:47:18.943Z,9.26
2018-11-01T05:48:18.917Z,9.16
2018-11-01T05:49:18.899Z,9.22
2018-11-01T05:50:18.877Z,9.29
2018-11-01T05:51:18.853Z,9.27
2018-11-01T05:52:18.833Z,9.21
2018-11-01T05:53:18.811Z,9.26
2018-11-01T05:54:18.788Z,9.19
2018-11-01T05:55:18.763Z,9.24
2018-11-01T05:56:18.743Z,9.29
2018-11-01T05:57:18.723Z,9.36
2018-11-01T05:58:18.706Z,9.37
2018-11-01T05:59:18.681Z,9.31
2018-11-01T06:00:18.657Z,9.29
2018-11-01T06:01:18.639Z,9.27
2018-11-01T06:02:18.619Z,9.26
2018-11-01T06:03:18.652Z,9.22
2018-11-01T06:04:18.570Z,9.27
2018-11-01T06:05:18.543Z,9.22
2018-11-01T06:06:18.524Z,9.16
2018-11-01T06:07:18.511Z,9.13
2018-11-01T06:08:18.476Z,9.05
2018-11-01T06:09:18.455Z,9.05
2018-11-01T06:10:18.438Z,9.03
2018-11-01T06:11:18.413Z,9.05
2018-11-01T06:12:18.424Z,9.02
2018-11-01T06:13:18.366Z,8.99
2018-11-01T06:14:18.344Z,9.05
2018-11-01T06:15:18.330Z,9.02
2018-11-01T06:16:18.300Z,9.02
2018-11-01T06:17:18.286Z,8.97
2018-11-01T06:18:18.255Z,8.93
2018-11-01T06:19:18.233Z,8.95
2018-11-01T06:20:18.221Z,8.82
2018-11-01T06:21:18.188Z,8.92
2018-11-01T06:22:18.168Z,8.89
2018-11-01T06:23:18.152Z,8.82
2018-11-01T06:24:18.124Z,8.81
2018-11-01T06:25:18.099Z,8.84
2018-11-01T06:26:18.076Z,8.86
2018-11-01T06:27:18.056Z,8.87
2018-11-01T06:28:18.033Z,8.92
2018-11-01T06:29:18.007Z,8.79
2018-11-01T06:30:18.026Z,8.78
2018-11-01T06:31:17.963Z,8.75
2018-11-01T06:32:17.942Z,8.68
2018-11-01T06:33:17.921Z,8.68
2018-11-01T06:34:17.897Z,8.61
2018-11-01T06:35:17.876Z,8.61
2018-11-01T06:36:17.853Z,8.59
2018-11-01T06:37:17.833Z,8.72
2018-11-01T06:38:17.812Z,8.71
2018-11-01T06:39:17.786Z,8.69
2018-11-01T06:40:17.761Z,8.74
2018-11-01T06:41:17.742Z,8.82
2018-11-01T06:42:17.721Z,8.90
2018-11-01T06:43:17.694Z,8.87
2018-11-01T06:44:17.690Z,8.95
2018-11-01T06:45:17.652Z,8.93
2018-11-01T06:46:17.632Z,8.92
2018-11-01T06:47:17.608Z,8.95
2018-11-01T06:48:17.586Z,8.89
2018-11-01T06:49:17.562Z,8.81
2018-11-01T06:50:17.540Z,8.82
2018-11-01T06:51:17.519Z,8.82
2018-11-01T06:52:17.530Z,8.84
2018-11-01T06:53:17.477Z,8.79
2018-11-01T06:54:17.448Z,8.89
2018-11-01T06:55:17.480Z,8.86
2018-11-01T06:56:17.406Z,8.81
2018-11-01T06:57:17.383Z,8.82
2018-11-01T06:58:17.402Z,8.84
2018-11-01T06:59:17.599Z,8.82
2018-11-01T07:00:17.321Z,8.96
2018-11-01T07:01:17.293Z,9.00
2018-11-01T07:02:17.269Z,8.95
2018-11-01T07:03:17.246Z,8.87
2018-11-01T07:04:17.223Z,8.90
2018-11-01T07:05:17.202Z,8.84
2018-11-01T07:06:17.187Z,8.87
2018-11-01T07:07:17.156Z,8.95
2018-11-01T07:08:17.132Z,8.96
2018-11-01T07:09:17.112Z,8.89
2018-11-01T07:10:17.091Z,8.77
2018-11-01T07:11:17.091Z,8.77
2018-11-01T07:12:17.044Z,8.81
2018-11-01T07:13:17.021Z,8.75
2018-11-01T07:14:17.008Z,8.75
2018-11-01T07:15:16.978Z,8.79
2018-11-01T07:16:16.953Z,8.81
2018-11-01T07:17:17.176Z,8.86
2018-11-01T07:18:16.918Z,8.82
2018-11-01T07:19:16.888Z,8.87
2018-11-01T07:20:16.865Z,8.78
2018-11-01T07:21:16.843Z,8.86
2018-11-01T07:22:16.819Z,8.86
2018-11-01T07:23:16.799Z,8.87
2018-11-01T07:24:16.782Z,8.87
2018-11-01T07:25:16.819Z,8.90
2018-11-01T07:26:16.906Z,8.95
2018-11-01T07:27:16.707Z,9.05
2018-11-01T07:28:16.689Z,8.97
2018-11-01T07:29:16.662Z,9.00
2018-11-01T07:30:16.640Z,9.05
2018-11-01T07:31:16.618Z,9.05
2018-11-01T07:32:16.594Z,9.02
2018-11-01T07:33:16.572Z,9.18
2018-11-01T07:34:16.560Z,9.27
2018-11-01T07:35:16.529Z,9.16
2018-11-01T07:36:16.514Z,9.21
2018-11-01T07:37:16.484Z,9.34
2018-11-01T07:38:16.464Z,9.49
2018-11-01T07:39:16.441Z,9.49
2018-11-01T07:40:16.420Z,9.55
2018-11-01T07:41:16.396Z,9.56
2018-11-01T07:42:16.376Z,9.62
2018-11-01T07:43:16.355Z,9.63
2018-11-01T07:44:16.331Z,9.59
2018-11-01T07:45:16.317Z,9.63
2018-11-01T07:46:16.287Z,9.64
2018-11-01T07:47:16.266Z,9.59
2018-11-01T07:48:16.243Z,9.64
2018-11-01T07:49:16.220Z,9.73
2018-11-01T07:50:16.199Z,9.74
2018-11-01T07:51:16.179Z,9.70
2018-11-01T07:52:16.160Z,9.82
2018-11-01T07:53:16.133Z,9.80
2018-11-01T07:54:16.115Z,9.82
2018-11-01T07:55:16.102Z,9.85
2018-11-01T07:56:16.079Z,9.85
2018-11-01T07:57:16.050Z,9.77
2018-11-01T07:58:16.066Z,9.85
2018-11-01T07:59:16.005Z,9.85
2018-11-01T08:00:15.983Z,9.74
2018-11-01T08:01:15.962Z,9.74
2018-11-01T08:02:15.947Z,9.77
2018-11-01T08:03:15.924Z,9.73
2018-11-01T08:04:15.895Z,9.74
2018-11-01T08:05:15.872Z,9.82
2018-11-01T08:06:15.861Z,9.84
2018-11-01T08:07:15.833Z,9.91
2018-11-01T08:08:15.810Z,9.87
2018-11-01T08:09:15.787Z,10.09
2018-11-01T08:10:15.767Z,9.88
2018-11-01T08:11:15.746Z,10.02
2018-11-01T08:12:15.726Z,10.09
2018-11-01T08:13:15.707Z,10.10
2018-11-01T08:14:15.708Z,10.28
2018-11-01T08:15:15.666Z,10.38
2018-11-01T08:16:15.637Z,10.48
2018-11-01T08:17:15.629Z,10.46
2018-11-01T08:18:15.596Z,10.49
2018-11-01T08:19:15.577Z,10.59
2018-11-01T08:20:15.836Z,10.76
2018-11-01T08:21:15.761Z,10.69
2018-11-01T08:22:15.514Z,10.76
2018-11-01T08:23:15.497Z,10.83
2018-11-01T08:24:15.465Z,10.94
2018-11-01T08:25:15.446Z,10.92
2018-11-01T08:26:15.424Z,10.84
2018-11-01T08:27:15.405Z,10.89
2018-11-01T08:28:15.389Z,10.76
2018-11-01T08:29:15.360Z,10.77
2018-11-01T08:30:15.350Z,10.75
2018-11-01T08:31:15.319Z,10.79
2018-11-01T08:32:15.300Z,10.79
2018-11-01T08:33:15.277Z,10.79
2018-11-01T08:34:15.257Z,10.84
2018-11-01T08:35:15.242Z,10.90
2018-11-01T08:36:15.214Z,10.89
2018-11-01T08:37:15.196Z,10.98
2018-11-01T08:38:15.174Z,10.95
2018-11-01T08:39:15.211Z,11.02
2018-11-01T08:40:15.133Z,11.08
2018-11-01T08:41:15.117Z,11.16
2018-11-01T08:42:15.208Z,11.20
2018-11-01T08:43:15.070Z,11.20
2018-11-01T08:44:15.048Z,11.16
2018-11-01T08:45:15.091Z,11.16
2018-11-01T08:46:15.018Z,11.23
2018-11-01T08:47:14.995Z,11.26
2018-11-01T08:48:14.974Z,11.37
2018-11-01T08:49:14.993Z,11.43
2018-11-01T08:50:14.926Z,11.43
2018-11-01T08:51:14.905Z,11.43
2018-11-01T08:52:14.885Z,11.45
2018-11-01T08:53:14.867Z,11.31
2018-11-01T08:54:14.850Z,11.16
2018-11-01T08:55:14.828Z,11.20
2018-11-01T08:56:14.803Z,11.20
2018-11-01T08:57:14.791Z,11.27
2018-11-01T08:58:14.764Z,11.33
2018-11-01T08:59:14.750Z,11.43
2018-11-01T09:00:14.723Z,11.48
2018-11-01T09:01:14.703Z,11.56
2018-11-01T09:02:14.688Z,11.53
2018-11-01T09:03:14.666Z,11.55
2018-11-01T09:04:14.678Z,11.53
2018-11-01T09:05:14.623Z,11.53
2018-11-01T09:06:14.604Z,11.53
2018-11-01T09:07:14.619Z,11.56
2018-11-01T09:08:14.563Z,11.55
2018-11-01T09:09:14.540Z,11.63
2018-11-01T09:10:14.550Z,11.78
2018-11-01T09:11:14.511Z,11.76
2018-11-01T09:12:14.481Z,11.65
2018-11-01T09:13:14.501Z,11.80
2018-11-01T09:14:14.490Z,11.80
2018-11-01T09:15:14.418Z,11.88
2018-11-01T09:16:14.403Z,11.89
2018-11-01T09:17:14.380Z,12.03
2018-11-01T09:18:14.365Z,12.12
2018-11-01T09:19:14.370Z,12.10
2018-11-01T09:20:14.325Z,12.03
2018-11-01T09:21:14.339Z,12.02
2018-11-01T09:22:14.280Z,11.88
2018-11-01T09:23:14.257Z,11.81
2018-11-01T09:24:14.248Z,11.83
2018-11-01T09:25:14.216Z,11.81
2018-11-01T09:26:14.201Z,11.78
2018-11-01T09:27:14.238Z,11.88
2018-11-01T09:28:14.158Z,11.93
2018-11-01T09:29:14.138Z,11.93
2018-11-01T09:30:14.123Z,11.93
2018-11-01T09:31:14.105Z,11.89
2018-11-01T09:32:14.078Z,11.95
2018-11-01T09:33:14.060Z,11.93
2018-11-01T09:34:14.097Z,11.88
2018-11-01T09:35:14.027Z,11.85
2018-11-01T09:36:14.010Z,11.88
2018-11-01T09:37:13.981Z,11.88
2018-11-01T09:38:13.975Z,11.81
2018-11-01T09:39:13.947Z,11.85
2018-11-01T09:40:13.934Z,11.77
2018-11-01T09:41:13.912Z,11.86
2018-11-01T09:42:13.882Z,11.96
2018-11-01T09:43:13.881Z,12.03
2018-11-01T09:44:13.842Z,12.10
2018-11-01T09:45:13.854Z,12.15
2018-11-01T09:46:13.873Z,12.12
2018-11-01T09:47:14.189Z,12.15
2018-11-01T09:48:13.763Z,12.18
2018-11-01T09:49:13.747Z,12.17
2018-11-01T09:50:13.733Z,12.18
2018-11-01T09:51:13.707Z,12.14
2018-11-01T09:52:13.691Z,12.21
2018-11-01T09:53:13.678Z,12.12
2018-11-01T09:54:13.647Z,12.20
2018-11-01T09:55:13.650Z,12.36
2018-11-01T09:56:13.611Z,12.36
2018-11-01T09:57:13.587Z,12.26
2018-11-01T09:58:13.581Z,12.28
2018-11-01T09:59:13.556Z,12.37
2018-11-01T10:00:13.530Z,12.47
2018-11-01T10:01:13.640Z,12.44
2018-11-01T10:02:13.498Z,12.33
2018-11-01T10:03:13.471Z,12.30
2018-11-01T10:04:13.502Z,12.36
2018-11-01T10:05:13.434Z,12.33
2018-11-01T10:06:13.507Z,12.35
2018-11-01T10:07:13.391Z,12.20
2018-11-01T10:08:13.373Z,12.36
2018-11-01T10:09:13.351Z,12.37
2018-11-01T10:10:13.339Z,12.48
2018-11-01T10:11:13.318Z,12.55
2018-11-01T10:12:13.302Z,12.63
2018-11-01T10:13:13.291Z,12.61
2018-11-01T10:14:13.259Z,12.62
2018-11-01T10:15:13.353Z,12.61
2018-11-01T10:16:13.285Z,12.61
2018-11-01T10:17:13.569Z,12.70
2018-11-01T10:18:13.730Z,12.81
2018-11-01T10:19:13.158Z,12.76
2018-11-01T10:20:13.210Z,12.81
2018-11-01T10:21:13.140Z,12.78
2018-11-01T10:22:13.151Z,12.84
2018-11-01T10:23:13.213Z,12.81
2018-11-01T10:24:13.095Z,12.76
2018-11-01T10:25:13.052Z,12.78
2018-11-01T10:26:13.024Z,12.76
2018-11-01T10:27:19.511Z,12.78
2018-11-01T10:28:12.994Z,12.72
2018-11-01T10:29:12.967Z,12.62
2018-11-01T10:30:12.957Z,12.63
2018-11-01T10:31:12.928Z,12.57
2018-11-01T10:32:12.907Z,12.51
2018-11-01T10:33:12.898Z,12.57
2018-11-01T10:34:13.024Z,12.63
2018-11-01T10:35:12.852Z,12.70
2018-11-01T10:36:12.837Z,12.76
2018-11-01T10:37:12.820Z,12.86
2018-11-01T10:38:12.794Z,12.86
2018-11-01T10:39:12.776Z,12.94
2018-11-01T10:40:12.754Z,12.91
2018-11-01T10:41:12.739Z,12.87
2018-11-01T10:42:12.727Z,12.80
2018-11-01T10:43:12.700Z,12.73
2018-11-01T10:44:12.683Z,12.65
2018-11-01T10:45:12.687Z,12.63
2018-11-01T10:46:12.643Z,12.69
2018-11-01T10:47:12.633Z,12.66
2018-11-01T10:48:12.604Z,12.65
2018-11-01T10:49:12.593Z,12.58
2018-11-01T10:50:12.576Z,12.51
2018-11-01T10:51:12.557Z,12.48
2018-11-01T10:52:12.527Z,12.57
2018-11-01T10:53:12.515Z,12.65
2018-11-01T10:54:12.499Z,12.62
2018-11-01T10:55:12.480Z,12.62
2018-11-01T10:56:12.457Z,12.63
2018-11-01T10:57:12.435Z,12.76
2018-11-01T10:58:12.413Z,12.76
2018-11-01T10:59:12.396Z,12.73
2018-11-01T11:00:12.489Z,12.75
2018-11-01T11:01:12.442Z,12.75
2018-11-01T11:02:12.346Z,12.78
2018-11-01T11:03:12.333Z,12.69
2018-11-01T11:04:12.305Z,12.76
2018-11-01T11:05:12.295Z,12.72
2018-11-01T11:06:12.266Z,12.75
2018-11-01T11:07:12.241Z,12.73
2018-11-01T11:08:12.228Z,12.80
2018-11-01T11:09:12.204Z,12.73
2018-11-01T11:10:12.193Z,12.73
2018-11-01T11:11:12.172Z,12.86
2018-11-01T11:12:12.145Z,12.90
2018-11-01T11:13:12.133Z,12.90
2018-11-01T11:14:12.113Z,12.86
2018-11-01T11:15:12.095Z,12.88
2018-11-01T11:16:12.067Z,12.83
2018-11-01T11:17:12.057Z,12.90
2018-11-01T11:18:12.034Z,12.93
2018-11-01T11:19:12.013Z,12.91
2018-11-01T11:20:12.218Z,12.98
2018-11-01T11:21:12.358Z,13.05
2018-11-01T11:22:11.954Z,13.01
2018-11-01T11:23:11.936Z,13.06
2018-11-01T11:24:11.922Z,13.01
2018-11-01T11:25:11.896Z,13.03
2018-11-01T11:26:11.880Z,13.11
2018-11-01T11:27:11.857Z,13.11
2018-11-01T11:28:11.839Z,13.12
2018-11-01T11:29:11.832Z,13.20
2018-11-01T11:30:11.931Z,13.21
2018-11-01T11:31:11.787Z,13.12
2018-11-01T11:32:11.768Z,13.02
2018-11-01T11:33:11.744Z,12.98
2018-11-01T11:34:11.740Z,12.94
2018-11-01T11:35:11.716Z,12.90
2018-11-01T11:36:11.688Z,12.90
2018-11-01T11:37:11.667Z,12.84
2018-11-01T11:38:11.666Z,12.88
2018-11-01T11:39:11.735Z,12.93
2018-11-01T11:40:11.614Z,13.05
2018-11-01T11:41:11.599Z,13.05
2018-11-01T11:42:11.588Z,13.05
2018-11-01T11:43:11.568Z,13.06
2018-11-01T11:44:11.537Z,12.99
2018-11-01T11:45:11.526Z,13.03
2018-11-01T11:46:11.502Z,13.05
2018-11-01T11:47:11.489Z,13.02
2018-11-01T11:48:11.463Z,12.95
2018-11-01T11:49:11.448Z,12.90
2018-11-01T11:50:11.425Z,12.90
2018-11-01T11:51:11.460Z,12.86
2018-11-01T11:52:11.398Z,12.91
2018-11-01T11:53:11.370Z,12.95
2018-11-01T11:54:11.351Z,13.02
2018-11-01T11:55:11.331Z,13.08
2018-11-01T11:56:11.320Z,13.06
2018-11-01T11:57:11.468Z,13.08
2018-11-01T11:58:11.278Z,13.16
2018-11-01T11:59:11.256Z,13.20
2018-11-01T12:00:11.237Z,13.26
2018-11-01T12:01:11.214Z,13.26
2018-11-01T12:02:11.213Z,13.20
2018-11-01T12:03:11.194Z,13.23
2018-11-01T12:04:11.157Z,13.30
2018-11-01T12:05:11.171Z,13.36
2018-11-01T12:06:11.246Z,13.42
2018-11-01T12:07:11.101Z,13.33
2018-11-01T12:08:11.096Z,13.46
2018-11-01T12:09:11.099Z,13.43
2018-11-01T12:10:11.052Z,13.46
2018-11-01T12:11:11.028Z,13.46
2018-11-01T12:12:11.068Z,13.50
2018-11-01T12:13:10.993Z,13.55
2018-11-01T12:14:11.028Z,13.58
2018-11-01T12:15:11.042Z,13.60
2018-11-01T12:16:10.960Z,13.55
2018-11-01T12:17:10.921Z,13.60
2018-11-01T12:18:10.950Z,13.61
2018-11-01T12:19:10.881Z,13.60
2018-11-01T12:20:10.859Z,13.64
2018-11-01T12:21:10.841Z,13.62
2018-11-01T12:22:10.873Z,13.58
2018-11-01T12:23:10.816Z,13.67
2018-11-01T12:24:10.780Z,13.73
2018-11-01T12:25:10.767Z,13.75
2018-11-01T12:26:10.749Z,13.62
2018-11-01T12:27:10.732Z,13.57
2018-11-01T12:28:10.775Z,13.60
2018-11-01T12:29:10.692Z,13.58
2018-11-01T12:30:10.694Z,13.47
2018-11-01T12:31:10.658Z,13.45
2018-11-01T12:32:10.638Z,13.47
2018-11-01T12:33:10.618Z,13.50
2018-11-01T12:34:10.598Z,13.55
2018-11-01T12:35:10.650Z,13.54
2018-11-01T12:36:10.601Z,13.55
2018-11-01T12:37:10.543Z,13.58
2018-11-01T12:38:10.541Z,13.61
2018-11-01T12:39:10.503Z,13.58
2018-11-01T12:40:10.482Z,13.58
2018-11-01T12:41:10.459Z,13.64
2018-11-01T12:42:10.444Z,13.64
2018-11-01T12:43:10.434Z,13.71
2018-11-01T12:44:10.409Z,13.67
2018-11-01T12:45:10.395Z,13.61
2018-11-01T12:46:10.370Z,13.54
2018-11-01T12:47:10.357Z,13.58
2018-11-01T12:48:10.336Z,13.61
2018-11-01T12:49:10.317Z,13.60
2018-11-01T12:50:10.576Z,13.58
2018-11-01T12:51:10.294Z,13.58
2018-11-01T12:52:10.273Z,13.54
2018-11-01T12:53:10.241Z,13.58
2018-11-01T12:54:10.219Z,13.57
2018-11-01T12:55:10.210Z,13.54
2018-11-01T12:56:10.209Z,13.47
2018-11-01T12:57:10.160Z,13.46
2018-11-01T12:58:10.165Z,13.37
2018-11-01T12:59:10.122Z,13.42